createdAt,value
2019-04-03T00:04:51.173Z,99817.33
2019-04-03T00:10:20.358Z,99839.11
2019-04-03T00:15:58.197Z,99835.09
2019-04-03T00:21:08.300Z,99843.28
2019-04-03T00:26:52.686Z,99835.41
2019-04-03T00:32:32.807Z,99820.01
2019-04-03T00:37:45.373Z,99831.06
2019-04-03T00:43:05.133Z,99841.56
2019-04-03T00:48:20.834Z,99844.97
2019-04-03T00:53:35.921Z,99845.18
2019-04-03T00:59:09.191Z,99840.69
2019-04-03T02:57:18.162Z,99804.50
2019-04-03T03:02:24.728Z,99808.97
2019-04-03T03:07:35.632Z,99809.95
2019-04-03T03:12:41.553Z,99814.12
2019-04-03T03:17:49.838Z,99819.38
2019-04-03T03:22:56.574Z,99822.19
2019-04-03T03:28:06.255Z,99807.95
2019-04-03T03:33:32.511Z,99802.97
2019-04-03T03:38:27.143Z,99794.16
2019-04-03T03:43:31.492Z,99789.34
2019-04-03T03:48:43.936Z,99776.42
2019-04-03T03:53:55.893Z,99774.27
2019-04-03T03:59:03.482Z,99773.60
2019-04-03T04:04:27.851Z,99767.08
2019-04-03T04:09:37.146Z,99759.08
2019-04-03T04:14:43.333Z,99751.38
2019-04-03T04:19:49.720Z,99747.91
2019-04-03T04:24:55.379Z,99753.98
2019-04-03T04:30:01.072Z,99746.22
2019-04-03T04:35:10.338Z,99755.80
2019-04-03T04:40:15.423Z,99749.66
2019-04-03T04:45:24.308Z,99746.58
2019-04-03T04:50:29.893Z,99747.89
2019-04-03T04:55:35.988Z,99749.11
2019-04-03T05:00:41.599Z,99752.75
2019-04-03T05:05:47.387Z,99750.34
2019-04-03T05:10:52.792Z,99749.13
2019-04-03T05:15:58.261Z,99760.00
2019-04-03T05:21:04.190Z,99760.97
2019-04-03T05:26:10.242Z,99761.09
2019-04-03T05:31:15.983Z,99759.02
2019-04-03T05:36:21.443Z,99763.52
2019-04-03T05:41:28.548Z,99760.70
2019-04-03T05:46:36.731Z,99769.22
2019-04-03T05:51:41.415Z,99770.30
2019-04-03T05:56:46.912Z,99781.89
2019-04-03T06:01:52.352Z,99780.14
2019-04-03T06:06:57.858Z,99786.83
2019-04-03T06:12:03.817Z,99787.72
2019-04-03T06:17:09.275Z,99788.60
2019-04-03T06:22:16.467Z,99795.56
2019-04-03T06:27:22.106Z,99787.91
2019-04-03T06:32:29.184Z,99790.23
2019-04-03T06:37:35.121Z,99791.05
2019-04-03T06:42:40.593Z,99792.16
2019-04-03T06:47:46.053Z,99790.80
2019-04-03T06:52:53.014Z,99786.88
2019-04-03T06:57:58.713Z,99787.06
2019-04-03T07:03:04.535Z,99782.50
2019-04-03T07:08:10.453Z,99776.89
2019-04-03T07:13:15.900Z,99756.09
2019-04-03T07:18:21.569Z,99748.02
2019-04-03T07:23:28.985Z,99776.06
2019-04-03T07:28:34.199Z,99785.70
2019-04-03T07:33:39.756Z,99775.55
2019-04-03T07:38:45.206Z,99767.74
2019-04-03T07:43:50.788Z,99748.33
2019-04-03T07:48:56.294Z,99736.80
2019-04-03T07:54:04.246Z,99740.23
2019-04-03T07:59:08.927Z,99746.65
2019-04-03T08:04:16.175Z,99761.84
2019-04-03T08:09:21.509Z,99785.02
2019-04-03T08:14:26.915Z,99801.68
2019-04-03T08:19:32.332Z,99790.61
2019-04-03T08:24:37.935Z,99775.86
2019-04-03T08:29:45.145Z,99758.16
2019-04-03T08:34:50.608Z,99761.69
2019-04-03T08:39:58.601Z,99764.77
2019-04-03T08:45:05.763Z,99765.12
2019-04-03T08:50:11.049Z,99774.09
2019-04-03T08:55:16.525Z,99762.44
2019-04-03T09:00:22.157Z,99767.38
2019-04-03T09:05:27.632Z,99776.62
2019-04-03T09:10:36.411Z,99772.37
2019-04-03T09:15:40.350Z,99769.01
2019-04-03T09:20:45.961Z,99770.20
2019-04-03T09:25:51.553Z,99778.45
2019-04-03T09:30:56.953Z,99774.61
2019-04-03T09:36:04.319Z,99751.69
2019-04-03T09:41:09.845Z,99758.78
2019-04-03T09:46:15.562Z,99753.88
2019-04-03T09:51:22.526Z,99747.12
2019-04-03T09:56:28.224Z,99736.33
2019-04-03T10:01:33.972Z,99727.86
2019-04-03T10:06:39.537Z,99726.97
2019-04-03T10:11:46.724Z,99722.75
2019-04-03T10:16:52.214Z,99736.03
2019-04-03T10:21:57.688Z,99729.69
2019-04-03T10:27:03.126Z,99714.79
2019-04-03T10:32:08.551Z,99713.36
2019-04-03T10:37:15.111Z,99720.66
2019-04-03T10:42:20.880Z,99726.06
2019-04-03T10:47:39.765Z,99709.77
2019-04-03T10:52:33.819Z,99700.61
2019-04-03T10:57:39.320Z,99684.83
2019-04-03T11:02:44.717Z,99678.54
2019-04-03T11:07:50.253Z,99684.18
2019-04-03T11:12:55.757Z,99677.00
2019-04-03T11:18:01.590Z,99687.23
2019-04-03T11:23:08.391Z,99691.92
2019-04-03T11:28:14.308Z,99676.59
2019-04-03T11:33:19.749Z,99667.35
2019-04-03T11:38:28.244Z,99650.20
2019-04-03T11:43:32.498Z,99655.48
2019-04-03T11:48:38.033Z,99648.94
2019-04-03T11:53:45.250Z,99618.67
2019-04-03T11:58:52.081Z,99640.44
2019-04-03T12:03:57.770Z,99648.25
2019-04-03T12:09:03.748Z,99650.58
2019-04-03T12:14:09.587Z,99659.81
2019-04-03T12:19:15.113Z,99658.43
2019-04-03T12:24:20.696Z,99646.00
2019-04-03T12:29:26.462Z,99656.13
2019-04-03T12:34:32.066Z,99655.64
2019-04-03T12:39:37.554Z,99640.06
2019-04-03T12:44:43.231Z,99629.04
2019-04-03T12:49:49.047Z,99626.29
2019-04-03T12:54:54.705Z,99617.05
2019-04-03T13:00:00.310Z,99601.94
2019-04-03T13:05:07.251Z,99586.52
2019-04-03T13:10:13.424Z,99587.23
2019-04-03T13:15:19.423Z,99579.93
2019-04-03T13:20:25.603Z,99587.55
2019-04-03T13:25:31.431Z,99567.06
2019-04-03T13:30:37.084Z,99573.83
2019-04-03T13:35:42.574Z,99585.22
2019-04-03T13:40:48.377Z,99568.52
2019-04-03T13:45:53.999Z,99561.73
2019-04-03T13:50:59.587Z,99573.63
2019-04-03T13:56:06.206Z,99566.66
2019-04-03T14:01:12.684Z,99550.08
2019-04-03T14:06:18.663Z,99552.33
2019-04-03T14:11:24.673Z,99549.71
2019-04-03T14:16:30.166Z,99553.13
2019-04-03T14:21:36.719Z,99554.92
2019-04-03T14:26:44.380Z,99559.94
2019-04-03T14:31:49.646Z,99570.70
2019-04-03T14:36:55.508Z,99567.39
2019-04-03T14:42:00.989Z,99556.95
2019-04-03T14:47:06.716Z,99550.78
2019-04-03T14:52:12.173Z,99553.20
2019-04-03T14:57:22.275Z,99554.08
2019-04-03T15:02:24.863Z,99541.57
2019-04-03T15:07:30.318Z,99541.69
2019-04-03T15:12:38.582Z,99534.73
2019-04-03T15:17:43.090Z,99546.47
2019-04-03T15:22:48.805Z,99541.31
2019-04-03T15:27:54.235Z,99567.61
2019-04-03T15:32:59.665Z,99560.69
2019-04-03T15:38:05.312Z,99555.70
2019-04-03T15:43:12.317Z,99548.87
2019-04-03T15:48:20.895Z,99551.66
2019-04-03T15:53:25.890Z,99540.76
2019-04-03T15:58:32.101Z,99528.69
2019-04-03T16:03:37.656Z,99522.96
2019-04-03T16:08:45.261Z,99527.78
2019-04-03T16:13:50.197Z,99537.17
2019-04-03T16:18:55.932Z,99529.11
2019-04-03T16:24:01.603Z,99516.50
2019-04-03T16:29:08.550Z,99524.08
2019-04-03T16:34:14.350Z,99514.81
2019-04-03T16:39:20.386Z,99489.96
2019-04-03T16:44:26.891Z,99492.66
2019-04-03T16:49:32.861Z,99496.70
2019-04-03T16:54:38.366Z,99523.52
2019-04-03T16:59:43.986Z,99530.44
2019-04-03T17:04:49.628Z,99521.80
2019-04-03T17:09:55.066Z,99521.84
2019-04-03T17:15:00.817Z,99512.52
2019-04-03T17:20:09.363Z,99518.60
2019-04-03T17:25:19.601Z,99512.31
2019-04-03T17:30:28.403Z,99515.23
2019-04-03T17:35:41.292Z,99510.98
2019-04-03T17:40:51.137Z,99522.99
2019-04-03T17:45:57.852Z,99524.78
2019-04-03T17:51:03.426Z,99545.16
2019-04-03T17:56:08.958Z,99553.54
2019-04-03T18:01:14.663Z,99557.77
2019-04-03T18:06:20.293Z,99564.59
2019-04-03T18:11:25.858Z,99551.55
2019-04-03T18:16:31.307Z,99546.03
2019-04-03T18:21:36.777Z,99564.70
2019-04-03T18:26:44.865Z,99564.53
2019-04-03T18:31:49.742Z,99559.28
2019-04-03T18:36:55.377Z,99557.33
2019-04-03T18:42:01.136Z,99574.72
2019-04-03T18:47:07.319Z,99581.76
2019-04-03T18:52:13.269Z,99605.51
2019-04-03T18:57:18.796Z,99589.95
2019-04-03T19:02:24.581Z,99596.92
2019-04-03T19:07:29.972Z,99605.62
2019-04-03T19:12:36.219Z,99595.70
2019-04-03T19:17:41.789Z,99607.65
2019-04-03T19:22:47.240Z,99599.02
2019-04-03T19:27:52.676Z,99602.50
2019-04-03T19:32:59.497Z,99593.17
2019-04-03T19:38:05.579Z,99604.13
2019-04-03T19:43:11.139Z,99619.05
2019-04-03T19:48:17.781Z,99627.06
2019-04-03T19:53:23.327Z,99630.04
2019-04-03T19:58:29.561Z,99626.44
2019-04-03T20:03:35.328Z,99611.95
2019-04-03T20:08:41.027Z,99607.98
2019-04-03T20:13:46.439Z,99594.16
2019-04-03T20:18:52.081Z,99588.56
2019-04-03T20:23:57.665Z,99588.19
2019-04-03T20:29:03.099Z,99584.66
2019-04-03T20:34:08.545Z,99584.99
2019-04-03T20:39:14.218Z,99602.45
2019-04-03T20:44:19.742Z,99609.56
2019-04-03T20:49:25.192Z,99614.45
2019-04-03T20:54:30.746Z,99601.78
2019-04-03T20:59:36.159Z,99586.00
2019-04-03T21:04:41.612Z,99561.42
2019-04-03T21:09:47.019Z,99550.33
2019-04-03T21:14:52.409Z,99547.60
2019-04-03T21:19:57.783Z,99556.03
2019-04-03T21:25:05.358Z,99551.03
2019-04-03T21:30:10.570Z,99550.64
2019-04-03T21:35:16.096Z,99560.20
2019-04-03T21:40:21.558Z,99563.30
2019-04-03T21:45:27.037Z,99569.73
2019-04-03T21:50:32.565Z,99584.70
2019-04-03T21:55:38.235Z,99557.91
2019-04-03T22:01:19.988Z,99557.35
2019-04-03T22:06:27.664Z,99578.66
2019-04-03T22:11:34.802Z,99596.31
2019-04-03T22:16:39.989Z,99607.48
2019-04-03T22:21:45.396Z,99596.05
2019-04-03T22:26:50.788Z,99582.20
2019-04-03T22:31:56.463Z,99586.20
2019-04-03T22:37:03.789Z,99588.50
2019-04-03T22:42:09.140Z,99587.90
2019-04-03T22:47:14.564Z,99601.87
2019-04-03T22:52:20.033Z,99596.77
2019-04-03T22:57:25.429Z,99605.06
2019-04-03T23:02:31.799Z,99588.58
2019-04-03T23:07:37.751Z,99579.53
2019-04-03T23:12:43.191Z,99560.47
2019-04-03T23:17:48.606Z,99550.06
2019-04-03T23:22:56.260Z,99530.56
2019-04-03T23:28:03.039Z,99537.81
2019-04-03T23:33:08.345Z,99518.61
2019-04-03T23:38:13.841Z,99518.52
2019-04-03T23:43:19.245Z,99523.33
2019-04-03T23:48:24.654Z,99518.33
2019-04-03T23:53:31.979Z,99515.90
2019-04-03T23:58:37.244Z,99512.87
